Fredericton, Canada
Current Conditions -  °F | °C
As of 6:00 PM on Friday 31 Oct 2014 (Local Time) from CYFC Reporting Station
Overcast Overcast  
Wind Chill: 40°   Ceiling: 3900
Heat Index: 45°   Visibility: 9mi
Dew Point: 34°   Wind: 8mph
Humidity: 66%   Direction: 60°ENE
Pressure: 30.07"   Gusts: NA
Location:  45.96°N, 66.64°W
Report Text: CYFC 312100Z AUTO 06007KT 9SM BKN039 OVC049 07/01 A3007 RMK SLP184
Loading
Personal Weather Stations






























Interactive Weather Map
Tropical Storm Tracking
New forecast layout! Learn more

10-Day Weather Forecast

Advertisements
Track Severe Weather on mobile